Time,TemperatureF,DewpointF,PressureIn,WindDirection,WindDirectionDegrees,WindSpeedMPH,WindSpeedGustMPH,Humidity,HourlyPrecipIn,Conditions,Clouds,dailyrainin,SoftwareType,DateUTC
2013-08-23 00:01:00,68.1,65.7,29.97,ENE,67,0.0,0.0,92,0.00,,---,1.13,VWS V14.01,2013-08-23 05:01:00,
2013-08-23 00:11:00,67.8,65.4,29.97,ENE,67,0.0,0.0,92,0.00,,---,0.00,VWS V14.01,2013-08-23 05:11:00,
2013-08-23 00:21:00,67.6,65.2,29.97,ENE,67,0.0,0.0,92,0.00,,---,0.00,VWS V14.01,2013-08-23 05:21:00,
2013-08-23 00:31:00,67.6,65.2,29.97,ENE,67,0.0,0.0,92,0.00,,---,0.00,VWS V14.01,2013-08-23 05:31:00,
2013-08-23 00:41:00,67.4,65.0,29.97,ENE,67,0.0,0.0,92,0.00,,---,0.00,VWS V14.01,2013-08-23 05:41:00,
2013-08-23 00:46:00,67.4,65.0,29.97,ENE,67,0.0,0.0,92,0.00,,---,0.00,VWS V14.01,2013-08-23 05:46:00,
2013-08-23 00:51:00,67.4,65.0,29.97,ENE,71,0.0,0.0,92,0.00,,---,0.00,VWS V14.01,2013-08-23 05:51:00,
2013-08-23 00:56:00,67.3,64.9,29.97,ENE,71,0.0,0.0,92,0.00,,---,0.00,VWS V14.01,2013-08-23 05:56:00,
2013-08-23 01:01:00,67.3,64.9,29.97,ENE,69,0.0,0.0,92,0.00,,---,0.00,VWS V14.01,2013-08-23 06:01:00,
2013-08-23 01:11:00,67.3,65.2,29.96,ENE,69,0.0,0.0,93,0.00,,---,0.00,VWS V14.01,2013-08-23 06:11:00,
2013-08-23 01:16:00,67.3,65.2,29.96,ENE,69,0.0,0.0,93,0.00,,---,0.00,VWS V14.01,2013-08-23 06:16:00,
2013-08-23 01:26:00,67.1,65.0,29.96,ENE,69,0.0,0.0,93,0.00,,---,0.00,VWS V14.01,2013-08-23 06:26:00,
2013-08-23 01:36:00,66.9,64.8,29.96,ENE,69,0.0,0.0,93,0.00,,---,0.00,VWS V14.01,2013-08-23 06:36:00,
2013-08-23 01:46:00,66.8,64.7,29.97,ENE,69,0.0,0.0,93,0.00,,---,0.00,VWS V14.01,2013-08-23 06:46:00,
2013-08-23 01:56:00,66.4,64.3,29.97,ENE,69,0.0,0.0,93,0.00,,---,0.00,VWS V14.01,2013-08-23 06:56:00,
2013-08-23 02:01:00,66.4,64.3,29.97,ENE,69,0.0,0.0,93,0.00,,---,0.00,VWS V14.01,2013-08-23 07:01:00,
2013-08-23 02:06:00,66.3,64.2,29.97,ENE,69,0.0,0.0,93,0.00,,---,0.00,VWS V14.01,2013-08-23 07:06:00,
2013-08-23 02:16:00,66.3,64.2,29.97,ENE,69,0.0,0.0,93,0.00,,---,0.00,VWS V14.01,2013-08-23 07:16:00,
2013-08-23 02:21:00,66.1,64.3,29.97,ENE,69,0.0,0.0,94,0.00,,---,0.00,VWS V14.01,2013-08-23 07:21:00,
2013-08-23 02:26:00,66.1,64.3,29.97,ENE,69,0.0,0.0,94,0.00,,---,0.00,VWS V14.01,2013-08-23 07:26:00,
2013-08-23 02:31:00,66.1,64.3,29.97,ENE,69,0.0,0.0,94,0.00,,---,0.00,VWS V14.01,2013-08-23 07:31:00,
2013-08-23 02:36:00,66.1,64.3,29.97,ENE,69,0.0,0.0,94,0.00,,---,0.00,VWS V14.01,2013-08-23 07:36:00,
2013-08-23 02:41:00,66.1,64.3,29.97,ENE,69,0.0,0.0,94,0.00,,---,0.00,VWS V14.01,2013-08-23 07:41:00,
2013-08-23 02:46:00,66.0,64.2,29.97,ENE,69,0.0,0.0,94,0.00,,---,0.00,VWS V14.01,2013-08-23 07:46:00,
2013-08-23 02:51:00,66.0,64.2,29.97,ENE,69,0.0,0.0,94,0.00,,---,0.00,VWS V14.01,2013-08-23 07:51:00,
2013-08-23 03:01:00,66.0,64.2,29.97,ENE,69,0.0,0.0,94,0.00,,---,0.00,VWS V14.01,2013-08-23 08:01:00,
2013-08-23 03:06:00,66.0,64.2,29.97,ENE,69,0.0,0.0,94,0.00,,---,0.00,VWS V14.01,2013-08-23 08:06:00,
2013-08-23 03:11:00,66.0,64.2,29.97,ENE,69,0.0,0.0,94,0.00,,---,0.00,VWS V14.01,2013-08-23 08:11:00,
2013-08-23 03:16:00,66.0,64.2,29.97,ENE,69,0.0,0.0,94,0.00,,---,0.00,VWS V14.01,2013-08-23 08:16:00,
2013-08-23 03:26:00,66.3,64.8,29.97,ENE,69,0.0,0.0,95,0.00,,---,0.00,VWS V14.01,2013-08-23 08:26:00,
2013-08-23 03:31:00,66.4,64.9,29.97,ENE,69,0.0,0.0,95,0.00,,---,0.00,VWS V14.01,2013-08-23 08:31:00,
2013-08-23 03:41:00,66.4,64.9,29.97,ENE,69,0.0,0.0,95,0.00,,---,0.00,VWS V14.01,2013-08-23 08:41:00,
2013-08-23 03:46:00,66.4,64.9,29.97,ENE,69,0.0,0.0,95,0.00,,---,0.00,VWS V14.01,2013-08-23 08:46:00,
2013-08-23 03:51:00,66.4,64.9,29.97,ENE,69,0.0,0.0,95,0.00,,---,0.00,VWS V14.01,2013-08-23 08:51:00,
2013-08-23 03:56:00,66.4,64.9,29.97,ENE,69,0.0,0.0,95,0.00,,---,0.00,VWS V14.01,2013-08-23 08:56:00,
2013-08-23 04:01:00,66.4,64.9,29.97,ENE,69,0.0,0.0,95,0.00,,---,0.00,VWS V14.01,2013-08-23 09:01:00,
2013-08-23 04:06:00,66.4,64.9,29.96,ENE,69,0.0,0.0,95,0.00,,---,0.00,VWS V14.01,2013-08-23 09:06:00,
2013-08-23 04:11:00,66.3,64.8,29.96,ENE,69,0.0,0.0,95,0.00,,---,0.00,VWS V14.01,2013-08-23 09:11:00,
2013-08-23 04:21:00,66.3,64.8,29.96,ENE,69,0.0,0.0,95,0.00,,---,0.00,VWS V14.01,2013-08-23 09:21:00,
2013-08-23 04:26:00,66.1,64.6,29.96,ENE,69,0.0,0.0,95,0.00,,---,0.00,VWS V14.01,2013-08-23 09:26:00,
2013-08-23 04:31:00,66.1,64.6,29.96,ENE,69,0.0,0.0,95,0.00,,---,0.00,VWS V14.01,2013-08-23 09:31:00,
2013-08-23 04:41:00,65.8,64.3,29.96,ENE,69,0.0,0.0,95,0.00,,---,0.00,VWS V14.01,2013-08-23 09:41:00,
2013-08-23 04:46:00,65.8,64.3,29.96,ENE,69,0.0,0.0,95,0.00,,---,0.00,VWS V14.01,2013-08-23 09:46:00,
2013-08-23 04:56:00,65.8,64.3,29.97,ENE,69,0.0,0.0,95,0.00,,---,0.00,VWS V14.01,2013-08-23 09:56:00,
2013-08-23 05:01:00,65.6,64.1,29.97,ENE,69,0.0,0.0,95,0.00,,---,0.00,VWS V14.01,2013-08-23 10:01:00,
2013-08-23 05:11:00,65.8,64.3,29.97,ENE,67,0.0,0.0,95,0.00,,---,0.00,VWS V14.01,2013-08-23 10:11:00,
2013-08-23 05:16:00,66.0,64.8,29.97,ENE,67,0.0,0.0,96,0.00,,---,0.00,VWS V14.01,2013-08-23 10:16:00,
2013-08-23 05:21:00,66.0,64.5,29.97,ENE,67,0.0,0.0,95,0.00,,---,0.00,VWS V14.01,2013-08-23 10:21:00,
2013-08-23 05:26:00,65.8,64.3,29.97,ENE,67,0.0,0.0,95,0.00,,---,0.00,VWS V14.01,2013-08-23 10:26:00,
2013-08-23 05:31:00,65.6,64.1,29.97,ENE,67,0.0,0.0,95,0.00,,---,0.00,VWS V14.01,2013-08-23 10:31:00,
2013-08-23 05:36:00,65.6,64.1,29.97,ENE,67,0.0,0.0,95,0.00,,---,0.00,VWS V14.01,2013-08-23 10:36:00,
2013-08-23 05:41:00,65.6,64.4,29.97,ENE,67,0.0,0.0,96,0.00,,---,0.00,VWS V14.01,2013-08-23 10:41:00,
2013-08-23 05:46:00,65.5,64.3,29.97,ENE,67,0.0,0.0,96,0.00,,---,0.00,VWS V14.01,2013-08-23 10:46:00,
2013-08-23 05:51:00,65.5,64.0,29.97,ENE,67,0.0,0.0,95,0.00,,---,0.00,VWS V14.01,2013-08-23 10:51:00,
2013-08-23 05:56:00,65.3,64.1,29.97,ENE,67,0.0,0.0,96,0.00,,---,0.00,VWS V14.01,2013-08-23 10:56:00,
2013-08-23 06:06:00,65.2,64.0,29.98,ENE,67,0.0,0.0,96,0.00,,---,0.00,VWS V14.01,2013-08-23 11:06:00,
2013-08-23 06:11:00,65.2,64.0,29.98,ENE,67,0.0,0.0,96,0.00,,---,0.00,VWS V14.01,2013-08-23 11:11:00,
2013-08-23 06:16:00,65.0,63.8,29.98,ENE,67,0.0,0.0,96,0.00,,---,0.00,VWS V14.01,2013-08-23 11:16:00,
2013-08-23 06:21:00,65.0,63.8,29.98,ENE,67,0.0,0.0,96,0.00,,---,0.00,VWS V14.01,2013-08-23 11:21:00,
2013-08-23 06:31:00,64.8,63.6,29.98,ENE,67,0.0,0.0,96,0.00,,---,0.00,VWS V14.01,2013-08-23 11:31:00,
2013-08-23 06:41:00,64.8,63.6,29.98,ENE,69,0.0,0.0,96,0.00,,---,0.00,VWS V14.01,2013-08-23 11:41:00,
2013-08-23 06:46:00,64.8,63.6,29.98,ENE,71,0.0,0.0,96,0.00,,---,0.00,VWS V14.01,2013-08-23 11:46:00,
2013-08-23 06:56:00,64.8,63.6,29.98,ENE,76,0.0,0.0,96,0.00,,---,0.00,VWS V14.01,2013-08-23 11:56:00,
2013-08-23 07:06:00,65.0,63.8,29.98,ENE,76,0.0,0.0,96,0.00,,---,0.00,VWS V14.01,2013-08-23 12:06:00,
2013-08-23 07:11:00,65.2,64.0,29.98,ENE,76,0.0,0.0,96,0.00,,---,0.00,VWS V14.01,2013-08-23 12:11:00,
2013-08-23 07:16:00,65.2,64.0,29.99,ENE,76,0.0,0.0,96,0.00,,---,0.00,VWS V14.01,2013-08-23 12:16:00,
2013-08-23 07:21:00,65.3,64.1,29.99,ENE,76,0.0,0.0,96,0.00,,---,0.00,VWS V14.01,2013-08-23 12:21:00,
2013-08-23 07:31:00,65.8,64.6,29.99,East,86,0.0,0.0,96,0.00,,---,0.00,VWS V14.01,2013-08-23 12:31:00,
2013-08-23 07:36:00,66.0,64.8,29.99,East,86,0.0,0.0,96,0.00,,---,0.00,VWS V14.01,2013-08-23 12:36:00,
2013-08-23 07:46:00,66.6,65.4,29.98,East,86,0.0,0.0,96,0.00,,---,0.00,VWS V14.01,2013-08-23 12:46:00,
2013-08-23 07:51:00,66.9,65.7,29.98,East,88,0.0,0.0,96,0.00,,---,0.00,VWS V14.01,2013-08-23 12:51:00,
2013-08-23 07:56:00,67.3,66.1,29.98,East,88,0.0,0.0,96,0.00,,---,0.00,VWS V14.01,2013-08-23 12:56:00,
2013-08-23 08:06:00,68.1,66.9,29.99,East,91,0.0,0.0,96,0.00,,---,0.00,VWS V14.01,2013-08-23 13:06:00,
2013-08-23 08:11:00,68.4,67.2,29.99,East,101,0.0,0.0,96,0.00,,---,0.00,VWS V14.01,2013-08-23 13:11:00,
2013-08-23 08:16:00,68.6,67.4,29.99,East,98,0.0,0.0,96,0.00,,---,0.00,VWS V14.01,2013-08-23 13:16:00,
2013-08-23 08:26:00,69.1,67.9,29.99,East,94,0.0,1.0,96,0.00,,---,0.00,VWS V14.01,2013-08-23 13:26:00,
2013-08-23 08:36:00,69.4,68.2,29.99,ESE,110,0.0,1.0,96,0.00,,---,0.00,VWS V14.01,2013-08-23 13:36:00,
2013-08-23 08:41:00,69.8,68.6,29.99,ESE,111,0.0,1.0,96,0.00,,---,0.00,VWS V14.01,2013-08-23 13:41:00,
2013-08-23 08:46:00,69.9,68.7,29.99,ESE,116,0.0,1.0,96,0.00,,---,0.00,VWS V14.01,2013-08-23 13:46:00,
2013-08-23 08:56:00,70.6,69.1,29.99,ESE,110,0.0,1.0,95,0.00,,---,0.00,VWS V14.01,2013-08-23 13:56:00,
2013-08-23 09:01:00,70.9,69.4,29.99,ESE,121,0.0,1.0,95,0.00,,---,0.00,VWS V14.01,2013-08-23 14:01:00,
2013-08-23 09:11:00,71.8,70.3,29.99,SE,132,0.0,1.0,95,0.00,,---,0.00,VWS V14.01,2013-08-23 14:11:00,
2013-08-23 09:16:00,72.3,70.5,29.99,SSW,192,0.0,1.0,94,0.00,,---,0.00,VWS V14.01,2013-08-23 14:16:00,
2013-08-23 09:21:00,72.5,70.4,29.99,South,184,0.0,0.0,93,0.00,,---,0.00,VWS V14.01,2013-08-23 14:21:00,
2013-08-23 09:31:00,73.2,71.1,29.99,ESE,115,0.0,1.0,93,0.00,,---,0.00,VWS V14.01,2013-08-23 14:31:00,
2013-08-23 09:36:00,73.0,70.2,29.99,ESE,111,0.0,1.0,91,0.00,,---,0.00,VWS V14.01,2013-08-23 14:36:00,
2013-08-23 09:41:00,73.3,70.5,29.99,East,98,0.0,1.0,91,0.00,,---,0.00,VWS V14.01,2013-08-23 14:41:00,
2013-08-23 09:46:00,73.7,70.6,29.99,SE,127,0.0,1.0,90,0.00,,---,0.00,VWS V14.01,2013-08-23 14:46:00,
2013-08-23 09:56:00,74.4,70.6,29.99,SSE,151,0.0,2.0,88,0.00,,---,0.00,VWS V14.01,2013-08-23 14:56:00,
2013-08-23 10:01:00,74.7,71.2,29.99,ESE,123,0.0,0.0,89,0.00,,---,0.00,VWS V14.01,2013-08-23 15:01:00,
2013-08-23 10:06:00,74.7,70.6,29.99,ESE,123,0.0,1.0,87,0.00,,---,0.00,VWS V14.01,2013-08-23 15:06:00,
2013-08-23 10:11:00,75.4,71.3,29.99,SE,127,0.0,1.0,87,0.00,,---,0.00,VWS V14.01,2013-08-23 15:11:00,
2013-08-23 10:21:00,76.1,71.6,29.99,ESE,111,0.0,0.0,86,0.00,,---,0.00,VWS V14.01,2013-08-23 15:21:00,
2013-08-23 10:26:00,76.0,71.2,29.99,ESE,121,0.0,0.0,85,0.00,,---,0.00,VWS V14.01,2013-08-23 15:26:00,
2013-08-23 10:31:00,76.0,71.2,29.99,ESE,112,0.0,1.0,85,0.00,,---,0.00,VWS V14.01,2013-08-23 15:31:00,
2013-08-23 10:36:00,76.3,71.5,29.99,ESE,109,0.0,0.0,85,0.00,,---,0.00,VWS V14.01,2013-08-23 15:36:00,
2013-08-23 10:41:00,76.5,71.3,29.98,East,94,0.0,0.0,84,0.00,,---,0.00,VWS V14.01,2013-08-23 15:41:00,
2013-08-23 10:46:00,76.8,71.6,29.98,ESE,107,0.0,0.0,84,0.00,,---,0.00,VWS V14.01,2013-08-23 15:46:00,
2013-08-23 10:56:00,77.4,71.8,29.98,ESE,122,0.0,1.0,83,0.00,,---,0.00,VWS V14.01,2013-08-23 15:56:00,
2013-08-23 11:01:00,77.6,71.7,29.98,ESE,115,0.0,0.0,82,0.00,,---,0.00,VWS V14.01,2013-08-23 16:01:00,
2013-08-23 11:06:00,77.9,71.6,29.98,ESE,117,0.0,1.0,81,0.00,,---,0.00,VWS V14.01,2013-08-23 16:06:00,
2013-08-23 11:11:00,77.9,72.0,29.98,SE,134,0.0,1.0,82,0.00,,---,0.00,VWS V14.01,2013-08-23 16:11:00,
2013-08-23 11:16:00,78.3,71.6,29.98,SE,137,0.0,1.0,80,0.00,,---,0.00,VWS V14.01,2013-08-23 16:16:00,
2013-08-23 11:26:00,78.1,71.4,29.97,East,84,0.0,1.0,80,0.00,,---,0.00,VWS V14.01,2013-08-23 16:26:00,
2013-08-23 11:31:00,78.1,71.4,29.97,ENE,71,0.0,6.0,80,0.00,,---,0.00,VWS V14.01,2013-08-23 16:31:00,
2013-08-23 11:41:00,78.5,71.1,29.97,ESE,107,0.0,5.0,78,0.00,,---,0.00,VWS V14.01,2013-08-23 16:41:00,
2013-08-23 11:46:00,78.6,71.6,29.97,ESE,109,0.0,1.0,79,0.00,,---,0.00,VWS V14.01,2013-08-23 16:46:00,
2013-08-23 11:51:00,78.8,71.7,29.97,ENE,65,7.0,9.0,79,0.00,,---,0.00,VWS V14.01,2013-08-23 16:51:00,
2013-08-23 11:56:00,79.2,72.1,29.96,East,94,0.0,7.0,79,0.00,,---,0.00,VWS V14.01,2013-08-23 16:56:00,
2013-08-23 12:01:00,79.8,72.3,29.96,ENE,77,0.0,1.0,78,0.00,,---,0.00,VWS V14.01,2013-08-23 17:01:00,
2013-08-23 12:06:00,79.9,71.7,29.96,East,97,3.0,5.0,76,0.00,,---,0.00,VWS V14.01,2013-08-23 17:06:00,
2013-08-23 12:11:00,79.8,71.6,29.97,East,95,0.0,5.0,76,0.00,,---,0.00,VWS V14.01,2013-08-23 17:11:00,
2013-08-23 12:21:00,80.1,72.2,29.97,ENE,74,0.0,2.0,77,0.00,,---,0.00,VWS V14.01,2013-08-23 17:21:00,
2013-08-23 12:26:00,80.5,71.8,29.97,ESE,102,0.0,0.0,75,0.00,,---,0.00,VWS V14.01,2013-08-23 17:26:00,
2013-08-23 12:31:00,79.9,70.9,29.97,ESE,108,0.0,1.0,74,0.00,,---,0.00,VWS V14.01,2013-08-23 17:31:00,
2013-08-23 12:41:00,80.5,71.8,29.96,West,275,0.0,3.0,75,0.00,,---,0.00,VWS V14.01,2013-08-23 17:41:00,
2013-08-23 12:46:00,81.1,72.4,29.96,ESE,109,1.0,6.0,75,0.00,,---,0.00,VWS V14.01,2013-08-23 17:46:00,
2013-08-23 12:56:00,81.1,71.6,29.95,ESE,115,8.0,10.0,73,0.00,,---,0.00,VWS V14.01,2013-08-23 17:56:00,
2013-08-23 13:01:00,81.1,70.8,29.95,SSE,148,3.0,10.0,71,0.00,,---,0.00,VWS V14.01,2013-08-23 18:01:00,
2013-08-23 13:06:00,81.1,71.2,29.96,SE,124,0.0,6.0,72,0.00,,---,0.00,VWS V14.01,2013-08-23 18:06:00,
2013-08-23 13:11:00,81.2,71.3,29.96,ESE,115,4.0,7.0,72,0.00,,---,0.00,VWS V14.01,2013-08-23 18:11:00,
2013-08-23 13:16:00,81.4,71.1,29.96,ESE,111,0.0,9.0,71,0.00,,---,0.00,VWS V14.01,2013-08-23 18:16:00,
2013-08-23 13:26:00,81.1,70.8,29.95,SE,128,4.0,7.0,71,0.00,,---,0.00,VWS V14.01,2013-08-23 18:26:00,
2013-08-23 13:31:00,81.6,71.7,29.95,East,86,0.0,6.0,72,0.00,,---,0.00,VWS V14.01,2013-08-23 18:31:00,
2013-08-23 13:36:00,82.2,72.3,29.94,ESE,113,0.0,0.0,72,0.00,,---,0.00,VWS V14.01,2013-08-23 18:36:00,
2013-08-23 13:41:00,82.2,71.4,29.95,ESE,118,1.0,7.0,70,0.00,,---,0.00,VWS V14.01,2013-08-23 18:41:00,
2013-08-23 13:46:00,81.8,71.5,29.94,SSE,161,0.0,7.0,71,0.00,,---,0.00,VWS V14.01,2013-08-23 18:46:00,
2013-08-23 13:51:00,81.8,72.3,29.94,SE,140,6.0,7.0,73,0.00,,---,0.00,VWS V14.01,2013-08-23 18:51:00,
2013-08-23 14:01:00,82.2,72.3,29.94,ESE,119,5.0,9.0,72,0.00,,---,0.00,VWS V14.01,2013-08-23 19:01:00,
2013-08-23 14:11:00,82.2,71.9,29.93,SE,128,3.0,9.0,71,0.00,,---,0.00,VWS V14.01,2013-08-23 19:11:00,
2013-08-23 14:16:00,81.8,71.5,29.93,ESE,122,5.0,9.0,71,0.00,,---,0.00,VWS V14.01,2013-08-23 19:16:00,
2013-08-23 14:21:00,81.4,70.7,29.93,ENE,69,3.0,11.0,70,0.00,,---,0.00,VWS V14.01,2013-08-23 19:21:00,
2013-08-23 14:26:00,81.2,70.9,29.93,SE,134,1.0,9.0,71,0.00,,---,0.00,VWS V14.01,2013-08-23 19:26:00,
2013-08-23 14:31:00,81.6,71.3,29.93,East,91,1.0,6.0,71,0.00,,---,0.00,VWS V14.01,2013-08-23 19:31:00,
2013-08-23 14:36:00,81.6,71.7,29.93,SE,127,6.0,12.0,72,0.00,,---,0.00,VWS V14.01,2013-08-23 19:36:00,
2013-08-23 14:46:00,80.7,70.8,29.93,SE,135,0.0,8.0,72,0.00,,---,0.00,VWS V14.01,2013-08-23 19:46:00,
2013-08-23 14:51:00,80.7,70.4,29.93,ESE,121,2.0,12.0,71,0.00,,---,0.00,VWS V14.01,2013-08-23 19:51:00,
2013-08-23 14:56:00,80.9,70.6,29.93,ESE,109,5.0,8.0,71,0.00,,---,0.00,VWS V14.01,2013-08-23 19:56:00,
2013-08-23 15:01:00,81.4,71.5,29.93,ESE,121,2.0,7.0,72,0.00,,---,0.00,VWS V14.01,2013-08-23 20:01:00,
2013-08-23 15:06:00,81.8,71.1,29.92,SE,130,4.0,11.0,70,0.00,,---,0.00,VWS V14.01,2013-08-23 20:06:00,
2013-08-23 15:11:00,81.6,70.9,29.92,ESE,103,1.0,9.0,70,0.00,,---,0.00,VWS V14.01,2013-08-23 20:11:00,
2013-08-23 15:21:00,82.4,71.6,29.92,East,91,6.0,12.0,70,0.00,,---,0.00,VWS V14.01,2013-08-23 20:21:00,
2013-08-23 15:26:00,81.8,71.1,29.92,SE,128,0.0,11.0,70,0.00,,---,0.00,VWS V14.01,2013-08-23 20:26:00,
2013-08-23 15:36:00,81.8,71.5,29.92,ESE,117,2.0,9.0,71,0.00,,---,0.00,VWS V14.01,2013-08-23 20:36:00,
2013-08-23 15:41:00,81.8,71.5,29.92,ESE,108,2.0,10.0,71,0.00,,---,0.00,VWS V14.01,2013-08-23 20:41:00,
2013-08-23 15:46:00,82.0,72.1,29.92,ESE,103,0.0,7.0,72,0.00,,---,0.00,VWS V14.01,2013-08-23 20:46:00,
2013-08-23 15:56:00,81.2,70.9,29.92,ESE,110,6.0,11.0,71,0.00,,---,0.00,VWS V14.01,2013-08-23 20:56:00,
2013-08-23 16:01:00,81.1,71.2,29.92,SE,130,3.0,9.0,72,0.00,,---,0.00,VWS V14.01,2013-08-23 21:01:00,
2013-08-23 16:11:00,80.7,70.8,29.92,ESE,116,9.0,9.0,72,0.00,,---,0.00,VWS V14.01,2013-08-23 21:11:00,
2013-08-23 16:16:00,80.9,71.4,29.91,SE,128,3.0,10.0,73,0.00,,---,0.00,VWS V14.01,2013-08-23 21:16:00,
2013-08-23 16:21:00,81.6,71.7,29.91,East,101,3.0,11.0,72,0.00,,---,0.00,VWS V14.01,2013-08-23 21:21:00,
2013-08-23 16:26:00,81.6,71.3,29.91,ESE,114,1.0,10.0,71,0.00,,---,0.00,VWS V14.01,2013-08-23 21:26:00,
2013-08-23 16:31:00,82.2,72.3,29.91,ESE,122,1.0,6.0,72,0.00,,---,0.00,VWS V14.01,2013-08-23 21:31:00,
2013-08-23 16:41:00,82.0,71.3,29.91,ESE,108,10.0,13.0,70,0.00,,---,0.00,VWS V14.01,2013-08-23 21:41:00,
2013-08-23 16:46:00,81.8,71.9,29.90,ESE,109,2.0,10.0,72,0.00,,---,0.00,VWS V14.01,2013-08-23 21:46:00,
2013-08-23 16:51:00,82.0,71.7,29.91,ESE,110,7.0,9.0,71,0.00,,---,0.00,VWS V14.01,2013-08-23 21:51:00,
2013-08-23 17:01:00,81.8,71.9,29.90,ESE,112,2.0,7.0,72,0.00,,---,0.00,VWS V14.01,2013-08-23 22:01:00,
2013-08-23 17:06:00,81.8,71.5,29.91,ESE,116,5.0,11.0,71,0.00,,---,0.00,VWS V14.01,2013-08-23 22:06:00,
2013-08-23 17:11:00,82.0,72.1,29.90,East,96,7.0,7.0,72,0.00,,---,0.00,VWS V14.01,2013-08-23 22:11:00,
2013-08-23 17:16:00,81.8,71.9,29.90,East,90,0.0,7.0,72,0.00,,---,0.00,VWS V14.01,2013-08-23 22:16:00,
2013-08-23 17:21:00,81.8,71.5,29.91,ESE,107,0.0,12.0,71,0.00,,---,0.00,VWS V14.01,2013-08-23 22:21:00,
2013-08-23 17:31:00,81.6,71.7,29.91,ESE,111,4.0,7.0,72,0.00,,---,0.00,VWS V14.01,2013-08-23 22:31:00,
2013-08-23 17:36:00,81.4,71.9,29.91,ESE,114,0.0,7.0,73,0.00,,---,0.00,VWS V14.01,2013-08-23 22:36:00,
2013-08-23 17:41:00,81.6,71.7,29.91,ESE,117,3.0,10.0,72,0.00,,---,0.00,VWS V14.01,2013-08-23 22:41:00,
2013-08-23 17:51:00,81.1,71.6,29.91,ESE,116,0.0,9.0,73,0.00,,---,0.00,VWS V14.01,2013-08-23 22:51:00,
2013-08-23 17:56:00,80.9,71.4,29.91,ESE,105,0.0,10.0,73,0.00,,---,0.00,VWS V14.01,2013-08-23 22:56:00,
2013-08-23 18:01:00,80.9,71.4,29.91,ESE,102,1.0,7.0,73,0.00,,---,0.00,VWS V14.01,2013-08-23 23:01:00,
2013-08-23 18:11:00,81.1,72.0,29.91,ESE,117,1.0,7.0,74,0.00,,---,0.00,VWS V14.01,2013-08-23 23:11:00,
2013-08-23 18:16:00,80.9,71.8,29.90,ESE,113,7.0,7.0,74,0.00,,---,0.00,VWS V14.01,2013-08-23 23:16:00,
2013-08-23 18:26:00,80.7,71.2,29.90,ESE,113,1.0,10.0,73,0.00,,---,0.00,VWS V14.01,2013-08-23 23:26:00,
2013-08-23 18:31:00,80.7,71.7,29.90,ESE,102,1.0,7.0,74,0.00,,---,0.00,VWS V14.01,2013-08-23 23:31:00,
2013-08-23 18:36:00,80.7,71.7,29.90,ESE,103,0.0,7.0,74,0.00,,---,0.00,VWS V14.01,2013-08-23 23:36:00,
2013-08-23 18:46:00,80.5,71.5,29.90,ESE,104,0.0,7.0,74,0.00,,---,0.00,VWS V14.01,2013-08-23 23:46:00,
2013-08-23 18:51:00,80.3,71.3,29.90,ESE,117,1.0,9.0,74,0.00,,---,0.00,VWS V14.01,2013-08-23 23:51:00,
2013-08-23 18:56:00,80.1,71.5,29.90,ESE,108,1.0,6.0,75,0.00,,---,0.00,VWS V14.01,2013-08-23 23:56:00,
2013-08-23 19:01:00,80.1,71.5,29.90,ESE,106,1.0,6.0,75,0.00,,---,0.00,VWS V14.01,2013-08-24 00:01:00,
2013-08-23 19:11:00,79.6,71.4,29.89,East,99,0.0,6.0,76,0.00,,---,0.00,VWS V14.01,2013-08-24 00:11:00,
2013-08-23 19:21:00,79.2,71.4,29.90,ESE,121,0.0,3.0,77,0.00,,---,0.00,VWS V14.01,2013-08-24 00:21:00,
2013-08-23 19:26:00,78.8,71.0,29.89,East,101,0.0,3.0,77,0.00,,---,0.00,VWS V14.01,2013-08-24 00:26:00,
2013-08-23 19:31:00,78.6,71.2,29.89,ESE,122,0.0,3.0,78,0.00,,---,0.00,VWS V14.01,2013-08-24 00:31:00,
2013-08-23 19:41:00,78.1,71.1,29.89,East,98,2.0,2.0,79,0.00,,---,0.00,VWS V14.01,2013-08-24 00:41:00,
2013-08-23 19:51:00,77.6,70.9,29.89,East,94,0.0,2.0,80,0.00,,---,0.00,VWS V14.01,2013-08-24 00:51:00,
2013-08-23 19:56:00,77.2,70.6,29.89,East,94,0.0,1.0,80,0.00,,---,0.00,VWS V14.01,2013-08-24 00:56:00,
2013-08-23 20:01:00,77.0,70.7,29.90,East,98,0.0,1.0,81,0.00,,---,0.00,VWS V14.01,2013-08-24 01:01:00,
2013-08-23 20:06:00,76.7,70.8,29.89,SE,126,0.0,1.0,82,0.00,,---,0.00,VWS V14.01,2013-08-24 01:06:00,
2013-08-23 20:16:00,76.1,70.6,29.89,ESE,105,0.0,1.0,83,0.00,,---,0.00,VWS V14.01,2013-08-24 01:16:00,
2013-08-23 20:26:00,75.8,70.3,29.89,East,83,0.0,1.0,83,0.00,,---,0.00,VWS V14.01,2013-08-24 01:26:00,
2013-08-23 20:36:00,75.4,70.2,29.90,East,80,1.0,2.0,84,0.00,,---,0.00,VWS V14.01,2013-08-24 01:36:00,
2013-08-23 20:41:00,75.3,70.5,29.90,ESE,116,0.0,3.0,85,0.00,,---,0.00,VWS V14.01,2013-08-24 01:41:00,
2013-08-23 20:51:00,75.1,70.3,29.90,East,101,2.0,2.0,85,0.00,,---,0.00,VWS V14.01,2013-08-24 01:51:00,
2013-08-23 21:01:00,74.7,69.9,29.90,ESE,113,1.0,3.0,85,0.00,,---,0.00,VWS V14.01,2013-08-24 02:01:00,
2013-08-23 21:06:00,74.7,70.2,29.90,East,89,0.0,3.0,86,0.00,,---,0.00,VWS V14.01,2013-08-24 02:06:00,
2013-08-23 21:16:00,74.4,69.9,29.90,ESE,111,0.0,5.0,86,0.00,,---,0.00,VWS V14.01,2013-08-24 02:16:00,
2013-08-23 21:21:00,74.4,69.9,29.90,East,91,1.0,5.0,86,0.00,,---,0.00,VWS V14.01,2013-08-24 02:21:00,
2013-08-23 21:26:00,74.4,69.9,29.90,East,86,0.0,3.0,86,0.00,,---,0.00,VWS V14.01,2013-08-24 02:26:00,
2013-08-23 21:36:00,74.0,69.6,29.91,ESE,105,1.0,5.0,86,0.00,,---,0.00,VWS V14.01,2013-08-24 02:36:00,
2013-08-23 21:41:00,74.0,69.9,29.91,ESE,115,0.0,6.0,87,0.00,,---,0.00,VWS V14.01,2013-08-24 02:41:00,
2013-08-23 21:46:00,73.9,68.4,29.91,ESE,107,0.0,5.0,83,0.00,,---,0.00,VWS V14.01,2013-08-24 02:46:00,
2013-08-23 21:56:00,73.7,69.6,29.91,ESE,110,0.0,6.0,87,0.00,,---,0.00,VWS V14.01,2013-08-24 02:56:00,
2013-08-23 22:01:00,73.7,69.6,29.91,ESE,115,1.0,5.0,87,0.00,,---,0.00,VWS V14.01,2013-08-24 03:01:00,
2013-08-23 22:11:00,73.3,69.2,29.91,East,97,0.0,4.0,87,0.00,,---,0.00,VWS V14.01,2013-08-24 03:11:00,
2013-08-23 22:16:00,73.3,69.2,29.91,ESE,117,0.0,5.0,87,0.00,,---,0.00,VWS V14.01,2013-08-24 03:16:00,
2013-08-23 22:21:00,73.2,69.4,29.91,ENE,71,0.0,5.0,88,0.00,,---,0.00,VWS V14.01,2013-08-24 03:21:00,
2013-08-23 22:31:00,73.2,69.4,29.91,ESE,121,0.0,6.0,88,0.00,,---,0.00,VWS V14.01,2013-08-24 03:31:00,
2013-08-23 22:36:00,73.0,69.2,29.91,ESE,111,0.0,10.0,88,0.00,,---,0.00,VWS V14.01,2013-08-24 03:36:00,
2013-08-23 22:41:00,73.0,69.2,29.91,ESE,121,1.0,8.0,88,0.00,,---,0.00,VWS V14.01,2013-08-24 03:41:00,
2013-08-23 22:46:00,73.0,69.2,29.92,ESE,113,0.0,5.0,88,0.00,,---,0.00,VWS V14.01,2013-08-24 03:46:00,
2013-08-23 22:51:00,73.0,69.2,29.92,ESE,117,2.0,4.0,88,0.00,,---,0.00,VWS V14.01,2013-08-24 03:51:00,
2013-08-23 23:01:00,72.8,69.0,29.91,ESE,122,1.0,6.0,88,0.00,,---,0.00,VWS V14.01,2013-08-24 04:01:00,
2013-08-23 23:06:00,72.8,69.0,29.91,ESE,113,2.0,3.0,88,0.00,,---,0.00,VWS V14.01,2013-08-24 04:06:00,
2013-08-23 23:16:00,72.8,69.0,29.91,SE,128,4.0,6.0,88,0.00,,---,0.00,VWS V14.01,2013-08-24 04:16:00,
2013-08-23 23:21:00,72.8,69.0,29.91,SE,133,0.0,5.0,88,0.00,,---,0.00,VWS V14.01,2013-08-24 04:21:00,
2013-08-23 23:26:00,72.8,69.0,29.91,ESE,120,0.0,7.0,88,0.00,,---,0.00,VWS V14.01,2013-08-24 04:26:00,
2013-08-23 23:31:00,72.8,69.0,29.91,ESE,121,3.0,6.0,88,0.00,,---,0.00,VWS V14.01,2013-08-24 04:31:00,
2013-08-23 23:36:00,72.8,68.7,29.91,ESE,109,5.0,5.0,87,0.00,,---,0.00,VWS V14.01,2013-08-24 04:36:00,
2013-08-23 23:41:00,72.8,68.7,29.92,ESE,105,1.0,5.0,87,0.00,,---,0.00,VWS V14.01,2013-08-24 04:41:00,
2013-08-23 23:51:00,72.8,68.7,29.91,ESE,116,3.0,7.0,87,0.00,,---,0.00,VWS V14.01,2013-08-24 04:51:00,
2013-08-23 23:56:00,72.8,68.7,29.91,ESE,121,3.0,7.0,87,0.00,,---,0.00,VWS V14.01,2013-08-24 04:56:00,